Airfield :







YOU CAN JOIN US ON...

 
LOGIN :

Register | Disclaimer

   EN    FR    IT 

 









Legend :    VFR   Marginal VFR   IFR   Intensive IFR   Very Intensive IFR
Visi :
Ceiling :
>= 8 km
>= 3000ft
5 to 8 km
1000 to 3000 ft
1500m to 5 km
500 to 1000 ft
800 to 1500m
200 to 500 ft
< 800m
< 200 ft
Symbols :   Thunderstorms  Fog  Heavy snow  Heavy precipitations  Wind > 20 kt






- Airport Elevation : 160 ft
- IATA code : YYR


CYYR - Goose Bay

CURRENT METAR :
  • 110900Z 00000KT 15SM FEW060 BKN270 19/14 A2972 RMK SC2CI6 SLP065

EXPIRED METARs :
  • 110800Z 20009KT 15SM FEW050 BKN270 19/14 A2971 RMK SC1CI7 SLP061
  • 110700Z 20005KT 15SM FEW050 FEW270 19/15 A2970 RMK SC1CI2 SLP059

TAF TAF CYYR
Valid from the 11 at 06:00 until the 12 at 06:00 UTC


110530Z 1106/1206 20005KT P6SM FEW050 SCT270
BECMG 1110/1112 22010G20KT
FM111200 22010G20KT P6SM BKN300
BECMG 1115/1117 23020G30KT
FM112000 23020G30KT P6SM -SHRA BKN060
BECMG 1121/1123 23010G20KT
FM120300 23008KT P6SM -RA SCT030 OVC080 RMK NXT FCST BY 111200Z
CZQX FIR / North America



MET'MAP, your aeronautical weather chart ! - Copyright ORBIFLY December 2007 - Disclaimer

ORBIFLY MET'MAP TEAM :

Programming & Development : Alexandra Zaïnal
Concept & original design : Baudouin d'Aumeries
Assistance for programming : Marc-Olivier Méhu
Technical & hardware support : Manuel Goepfert

Contact : metmap@orbifly.com




SOURCES & CREDITS :

   NOAA